sensor_id;sensor_type;location;lat;lon;timestamp;temperature;humidity
2749;DHT22;1382;52.142;11.618;2023-03-04T00:00:55;6.00;54.90
2749;DHT22;1382;52.142;11.618;2023-03-04T00:03:22;6.00;54.80
2749;DHT22;1382;52.142;11.618;2023-03-04T00:05:49;6.00;54.90
2749;DHT22;1382;52.142;11.618;2023-03-04T00:08:15;5.90;54.90
2749;DHT22;1382;52.142;11.618;2023-03-04T00:10:42;5.90;54.80
2749;DHT22;1382;52.142;11.618;2023-03-04T00:13:09;5.90;54.90
2749;DHT22;1382;52.142;11.618;2023-03-04T00:15:37;5.90;55.10
2749;DHT22;1382;52.142;11.618;2023-03-04T00:18:04;5.90;55.20
2749;DHT22;1382;52.142;11.618;2023-03-04T00:20:31;5.90;55.30
2749;DHT22;1382;52.142;11.618;2023-03-04T00:22:57;5.90;55.50
2749;DHT22;1382;52.142;11.618;2023-03-04T00:25:24;5.80;55.80
2749;DHT22;1382;52.142;11.618;2023-03-04T00:27:51;5.80;56.10
2749;DHT22;1382;52.142;11.618;2023-03-04T00:30:17;5.70;56.70
2749;DHT22;1382;52.142;11.618;2023-03-04T00:32:45;5.70;57.10
2749;DHT22;1382;52.142;11.618;2023-03-04T00:35:12;5.60;57.40
2749;DHT22;1382;52.142;11.618;2023-03-04T00:37:39;5.60;57.50
2749;DHT22;1382;52.142;11.618;2023-03-04T00:40:06;5.60;57.70
2749;DHT22;1382;52.142;11.618;2023-03-04T00:42:35;5.50;57.80
2749;DHT22;1382;52.142;11.618;2023-03-04T00:45:02;5.70;58.30
2749;DHT22;1382;52.142;11.618;2023-03-04T00:47:28;5.60;58.70
2749;DHT22;1382;52.142;11.618;2023-03-04T00:49:56;5.50;58.40
2749;DHT22;1382;52.142;11.618;2023-03-04T00:52:23;5.50;58.70
2749;DHT22;1382;52.142;11.618;2023-03-04T00:54:50;5.60;59.60
2749;DHT22;1382;52.142;11.618;2023-03-04T00:57:16;5.60;58.80
2749;DHT22;1382;52.142;11.618;2023-03-04T00:59:43;5.60;58.70
2749;DHT22;1382;52.142;11.618;2023-03-04T01:02:10;5.60;58.80
2749;DHT22;1382;52.142;11.618;2023-03-04T01:04:37;5.70;58.90
2749;DHT22;1382;52.142;11.618;2023-03-04T01:07:05;5.70;59.00
2749;DHT22;1382;52.142;11.618;2023-03-04T01:09:32;5.70;59.60
2749;DHT22;1382;52.142;11.618;2023-03-04T01:11:59;5.70;59.00
2749;DHT22;1382;52.142;11.618;2023-03-04T01:14:25;5.70;59.00
2749;DHT22;1382;52.142;11.618;2023-03-04T01:16:52;5.80;59.00
2749;DHT22;1382;52.142;11.618;2023-03-04T01:19:19;5.80;59.00
2749;DHT22;1382;52.142;11.618;2023-03-04T01:21:46;5.90;59.10
2749;DHT22;1382;52.142;11.618;2023-03-04T01:24:14;5.90;59.20
2749;DHT22;1382;52.142;11.618;2023-03-04T01:26:40;5.90;59.30
2749;DHT22;1382;52.142;11.618;2023-03-04T01:29:07;5.90;59.20
2749;DHT22;1382;52.142;11.618;2023-03-04T01:31:34;5.90;59.30
2749;DHT22;1382;52.142;11.618;2023-03-04T01:34:00;6.00;59.30
2749;DHT22;1382;52.142;11.618;2023-03-04T01:36:27;6.00;59.10
2749;DHT22;1382;52.142;11.618;2023-03-04T01:38:54;6.00;58.80
2749;DHT22;1382;52.142;11.618;2023-03-04T01:41:24;6.10;59.00
2749;DHT22;1382;52.142;11.618;2023-03-04T01:43:53;6.10;58.60
2749;DHT22;1382;52.142;11.618;2023-03-04T01:46:21;6.20;58.70
2749;DHT22;1382;52.142;11.618;2023-03-04T01:48:48;6.20;58.80
2749;DHT22;1382;52.142;11.618;2023-03-04T01:51:16;6.20;58.70
2749;DHT22;1382;52.142;11.618;2023-03-04T01:53:44;6.30;58.80
2749;DHT22;1382;52.142;11.618;2023-03-04T01:56:14;6.30;58.90
2749;DHT22;1382;52.142;11.618;2023-03-04T01:58:42;6.40;59.00
2749;DHT22;1382;52.142;11.618;2023-03-04T02:01:10;6.40;58.90
2749;DHT22;1382;52.142;11.618;2023-03-04T02:03:37;6.40;58.90
2749;DHT22;1382;52.142;11.618;2023-03-04T02:06:04;6.50;59.00
2749;DHT22;1382;52.142;11.618;2023-03-04T02:08:31;6.50;58.80
2749;DHT22;1382;52.142;11.618;2023-03-04T02:10:59;6.70;58.90
2749;DHT22;1382;52.142;11.618;2023-03-04T02:13:26;6.50;58.80
2749;DHT22;1382;52.142;11.618;2023-03-04T02:15:54;6.60;58.80
2749;DHT22;1382;52.142;11.618;2023-03-04T02:18:22;6.60;58.60
2749;DHT22;1382;52.142;11.618;2023-03-04T02:20:58;6.70;58.70
2749;DHT22;1382;52.142;11.618;2023-03-04T02:23:33;6.70;58.50
2749;DHT22;1382;52.142;11.618;2023-03-04T02:26:13;6.70;58.60
2749;DHT22;1382;52.142;11.618;2023-03-04T02:28:40;6.70;58.50
2749;DHT22;1382;52.142;11.618;2023-03-04T02:31:15;6.70;58.30
2749;DHT22;1382;52.142;11.618;2023-03-04T02:33:46;6.80;58.40
2749;DHT22;1382;52.142;11.618;2023-03-04T02:36:12;6.80;58.20
2749;DHT22;1382;52.142;11.618;2023-03-04T02:38:39;6.80;58.30
2749;DHT22;1382;52.142;11.618;2023-03-04T02:41:10;6.80;58.20
2749;DHT22;1382;52.142;11.618;2023-03-04T02:43:39;6.90;58.40
2749;DHT22;1382;52.142;11.618;2023-03-04T02:46:06;6.90;58.40
2749;DHT22;1382;52.142;11.618;2023-03-04T02:48:32;6.90;58.40
2749;DHT22;1382;52.142;11.618;2023-03-04T02:50:59;6.90;58.50
2749;DHT22;1382;52.142;11.618;2023-03-04T02:53:26;6.90;58.50
2749;DHT22;1382;52.142;11.618;2023-03-04T02:55:52;7.00;58.60
2749;DHT22;1382;52.142;11.618;2023-03-04T02:58:19;7.00;58.70
2749;DHT22;1382;52.142;11.618;2023-03-04T03:00:47;7.10;59.00
2749;DHT22;1382;52.142;11.618;2023-03-04T03:03:14;6.90;58.80
2749;DHT22;1382;52.142;11.618;2023-03-04T03:05:40;6.90;58.80
2749;DHT22;1382;52.142;11.618;2023-03-04T03:08:07;7.00;58.90
2749;DHT22;1382;52.142;11.618;2023-03-04T03:10:34;7.00;59.10
2749;DHT22;1382;52.142;11.618;2023-03-04T03:13:01;7.00;59.00
2749;DHT22;1382;52.142;11.618;2023-03-04T03:15:28;7.00;59.10
2749;DHT22;1382;52.142;11.618;2023-03-04T03:17:56;7.00;59.20
2749;DHT22;1382;52.142;11.618;2023-03-04T03:20:23;7.00;59.20
2749;DHT22;1382;52.142;11.618;2023-03-04T03:22:50;7.00;59.30
2749;DHT22;1382;52.142;11.618;2023-03-04T03:25:17;7.00;59.30
2749;DHT22;1382;52.142;11.618;2023-03-04T03:27:43;7.00;59.10
2749;DHT22;1382;52.142;11.618;2023-03-04T03:30:12;7.10;59.20
2749;DHT22;1382;52.142;11.618;2023-03-04T03:32:39;7.10;59.20
2749;DHT22;1382;52.142;11.618;2023-03-04T03:35:08;7.10;59.10
2749;DHT22;1382;52.142;11.618;2023-03-04T03:37:35;7.20;59.20
2749;DHT22;1382;52.142;11.618;2023-03-04T03:40:02;7.20;59.10
2749;DHT22;1382;52.142;11.618;2023-03-04T03:42:29;7.20;59.10
2749;DHT22;1382;52.142;11.618;2023-03-04T03:44:55;7.20;58.90
2749;DHT22;1382;52.142;11.618;2023-03-04T03:47:23;7.30;59.20
2749;DHT22;1382;52.142;11.618;2023-03-04T03:49:50;7.30;59.00
2749;DHT22;1382;52.142;11.618;2023-03-04T03:52:18;7.30;59.10
2749;DHT22;1382;52.142;11.618;2023-03-04T03:54:45;7.30;59.10
2749;DHT22;1382;52.142;11.618;2023-03-04T03:57:11;7.30;59.20
2749;DHT22;1382;52.142;11.618;2023-03-04T03:59:38;7.30;59.10
2749;DHT22;1382;52.142;11.618;2023-03-04T04:02:05;7.30;59.30
2749;DHT22;1382;52.142;11.618;2023-03-04T04:04:31;7.30;59.30
2749;DHT22;1382;52.142;11.618;2023-03-04T04:06:58;7.30;59.30
2749;DHT22;1382;52.142;11.618;2023-03-04T04:09:26;7.40;59.40
2749;DHT22;1382;52.142;11.618;2023-03-04T04:11:53;7.40;59.50
2749;DHT22;1382;52.142;11.618;2023-03-04T04:14:20;7.30;59.40
2749;DHT22;1382;52.142;11.618;2023-03-04T04:16:46;7.50;59.40
2749;DHT22;1382;52.142;11.618;2023-03-04T04:19:16;7.40;59.50
2749;DHT22;1382;52.142;11.618;2023-03-04T04:21:44;7.40;59.40
2749;DHT22;1382;52.142;11.618;2023-03-04T04:24:11;7.40;59.30
2749;DHT22;1382;52.142;11.618;2023-03-04T04:26:39;7.40;59.20
2749;DHT22;1382;52.142;11.618;2023-03-04T04:29:06;7.50;59.30
2749;DHT22;1382;52.142;11.618;2023-03-04T04:31:34;7.50;59.30
2749;DHT22;1382;52.142;11.618;2023-03-04T04:34:01;7.50;59.20
2749;DHT22;1382;52.142;11.618;2023-03-04T04:36:27;7.50;59.10
2749;DHT22;1382;52.142;11.618;2023-03-04T04:38:54;7.50;59.00
2749;DHT22;1382;52.142;11.618;2023-03-04T04:41:22;7.70;59.20
2749;DHT22;1382;52.142;11.618;2023-03-04T04:43:51;7.60;59.10
2749;DHT22;1382;52.142;11.618;2023-03-04T04:46:18;7.70;59.30
2749;DHT22;1382;52.142;11.618;2023-03-04T04:48:45;7.60;59.30
2749;DHT22;1382;52.142;11.618;2023-03-04T04:51:12;7.60;59.30
2749;DHT22;1382;52.142;11.618;2023-03-04T04:53:39;7.60;59.40
2749;DHT22;1382;52.142;11.618;2023-03-04T04:56:10;7.60;59.40
2749;DHT22;1382;52.142;11.618;2023-03-04T04:58:37;7.80;59.70
2749;DHT22;1382;52.142;11.618;2023-03-04T05:01:06;7.60;59.20
2749;DHT22;1382;52.142;11.618;2023-03-04T05:03:34;7.60;59.40
2749;DHT22;1382;52.142;11.618;2023-03-04T05:06:02;7.60;59.50
2749;DHT22;1382;52.142;11.618;2023-03-04T05:08:29;7.70;59.60
2749;DHT22;1382;52.142;11.618;2023-03-04T05:10:56;7.70;59.60
2749;DHT22;1382;52.142;11.618;2023-03-04T05:13:22;7.70;59.50
2749;DHT22;1382;52.142;11.618;2023-03-04T05:15:50;7.70;59.60
2749;DHT22;1382;52.142;11.618;2023-03-04T05:18:18;7.70;59.50
2749;DHT22;1382;52.142;11.618;2023-03-04T05:20:49;7.70;59.40
2749;DHT22;1382;52.142;11.618;2023-03-04T05:23:16;7.80;59.50
2749;DHT22;1382;52.142;11.618;2023-03-04T05:25:42;7.70;59.50
2749;DHT22;1382;52.142;11.618;2023-03-04T05:28:09;7.80;59.50
2749;DHT22;1382;52.142;11.618;2023-03-04T05:30:36;7.80;59.50
2749;DHT22;1382;52.142;11.618;2023-03-04T05:33:02;7.80;59.50
2749;DHT22;1382;52.142;11.618;2023-03-04T05:35:30;7.80;59.60
2749;DHT22;1382;52.142;11.618;2023-03-04T05:37:57;7.80;59.60
2749;DHT22;1382;52.142;11.618;2023-03-04T05:40:24;7.80;59.60
2749;DHT22;1382;52.142;11.618;2023-03-04T05:42:50;7.80;59.70
2749;DHT22;1382;52.142;11.618;2023-03-04T05:45:17;7.90;59.70
2749;DHT22;1382;52.142;11.618;2023-03-04T05:47:44;7.80;59.60
2749;DHT22;1382;52.142;11.618;2023-03-04T05:50:11;7.90;59.90
2749;DHT22;1382;52.142;11.618;2023-03-04T05:52:39;7.90;59.70
2749;DHT22;1382;52.142;11.618;2023-03-04T05:55:06;7.90;59.80
2749;DHT22;1382;52.142;11.618;2023-03-04T05:57:33;7.90;59.80
2749;DHT22;1382;52.142;11.618;2023-03-04T06:00:00;7.90;59.80
2749;DHT22;1382;52.142;11.618;2023-03-04T06:02:27;8.00;60.10
2749;DHT22;1382;52.142;11.618;2023-03-04T06:04:53;7.90;60.10
2749;DHT22;1382;52.142;11.618;2023-03-04T06:07:20;7.90;60.10
2749;DHT22;1382;52.142;11.618;2023-03-04T06:09:48;7.90;60.20
2749;DHT22;1382;52.142;11.618;2023-03-04T06:12:15;7.90;60.30
2749;DHT22;1382;52.142;11.618;2023-03-04T06:14:41;8.10;60.70
2749;DHT22;1382;52.142;11.618;2023-03-04T06:17:08;7.90;60.20
2749;DHT22;1382;52.142;11.618;2023-03-04T06:19:35;7.90;60.50
2749;DHT22;1382;52.142;11.618;2023-03-04T06:22:01;7.90;60.40
2749;DHT22;1382;52.142;11.618;2023-03-04T06:24:28;8.00;60.70
2749;DHT22;1382;52.142;11.618;2023-03-04T06:26:56;8.00;60.80
2749;DHT22;1382;52.142;11.618;2023-03-04T06:29:23;8.00;60.70
2749;DHT22;1382;52.142;11.618;2023-03-04T06:31:49;8.00;61.00
2749;DHT22;1382;52.142;11.618;2023-03-04T06:34:16;8.10;60.80
2749;DHT22;1382;52.142;11.618;2023-03-04T06:36:43;8.00;61.10
2749;DHT22;1382;52.142;11.618;2023-03-04T06:39:10;8.00;61.20
2749;DHT22;1382;52.142;11.618;2023-03-04T06:41:37;8.00;61.20
2749;DHT22;1382;52.142;11.618;2023-03-04T06:44:05;8.00;60.90
2749;DHT22;1382;52.142;11.618;2023-03-04T06:46:33;8.00;61.20
2749;DHT22;1382;52.142;11.618;2023-03-04T06:49:00;8.00;61.10
2749;DHT22;1382;52.142;11.618;2023-03-04T06:51:27;8.10;61.50
2749;DHT22;1382;52.142;11.618;2023-03-04T06:53:54;8.10;61.60
2749;DHT22;1382;52.142;11.618;2023-03-04T06:56:20;8.10;61.40
2749;DHT22;1382;52.142;11.618;2023-03-04T06:58:47;8.10;61.40
2749;DHT22;1382;52.142;11.618;2023-03-04T07:01:17;8.10;61.40
2749;DHT22;1382;52.142;11.618;2023-03-04T07:03:45;8.10;61.60
2749;DHT22;1382;52.142;11.618;2023-03-04T07:06:14;8.10;61.50
2749;DHT22;1382;52.142;11.618;2023-03-04T07:08:42;8.10;61.40
2749;DHT22;1382;52.142;11.618;2023-03-04T07:11:09;8.20;61.60
2749;DHT22;1382;52.142;11.618;2023-03-04T07:13:36;8.20;61.80
2749;DHT22;1382;52.142;11.618;2023-03-04T07:16:03;8.20;61.90
2749;DHT22;1382;52.142;11.618;2023-03-04T07:18:31;8.20;62.00
2749;DHT22;1382;52.142;11.618;2023-03-04T07:20:58;8.20;61.80
2749;DHT22;1382;52.142;11.618;2023-03-04T07:23:25;8.20;62.20
2749;DHT22;1382;52.142;11.618;2023-03-04T07:25:52;8.30;62.20
2749;DHT22;1382;52.142;11.618;2023-03-04T07:28:19;8.20;62.20
2749;DHT22;1382;52.142;11.618;2023-03-04T07:30:45;8.30;62.20
2749;DHT22;1382;52.142;11.618;2023-03-04T07:33:12;8.30;62.10
2749;DHT22;1382;52.142;11.618;2023-03-04T07:35:41;8.30;62.20
2749;DHT22;1382;52.142;11.618;2023-03-04T07:38:08;8.30;62.30
2749;DHT22;1382;52.142;11.618;2023-03-04T07:40:35;8.30;62.40
2749;DHT22;1382;52.142;11.618;2023-03-04T07:43:02;8.30;62.30
2749;DHT22;1382;52.142;11.618;2023-03-04T07:45:29;8.30;62.50
2749;DHT22;1382;52.142;11.618;2023-03-04T07:47:56;8.30;62.60
2749;DHT22;1382;52.142;11.618;2023-03-04T07:50:23;8.30;62.90
2749;DHT22;1382;52.142;11.618;2023-03-04T07:52:51;8.30;62.90
2749;DHT22;1382;52.142;11.618;2023-03-04T07:55:18;8.30;63.00
2749;DHT22;1382;52.142;11.618;2023-03-04T07:57:46;8.30;63.00
2749;DHT22;1382;52.142;11.618;2023-03-04T08:00:15;8.40;63.20
2749;DHT22;1382;52.142;11.618;2023-03-04T08:02:42;8.30;63.00
2749;DHT22;1382;52.142;11.618;2023-03-04T08:05:09;8.40;63.20
2749;DHT22;1382;52.142;11.618;2023-03-04T08:07:36;8.40;63.00
2749;DHT22;1382;52.142;11.618;2023-03-04T08:10:05;8.40;63.00
2749;DHT22;1382;52.142;11.618;2023-03-04T08:12:31;8.50;62.80
2749;DHT22;1382;52.142;11.618;2023-03-04T08:14:58;8.50;62.70
2749;DHT22;1382;52.142;11.618;2023-03-04T08:17:25;8.50;62.80
2749;DHT22;1382;52.142;11.618;2023-03-04T08:19:52;8.50;62.80
2749;DHT22;1382;52.142;11.618;2023-03-04T08:22:18;8.60;62.90
2749;DHT22;1382;52.142;11.618;2023-03-04T08:24:45;8.60;62.80
2749;DHT22;1382;52.142;11.618;2023-03-04T08:27:13;8.60;62.90
2749;DHT22;1382;52.142;11.618;2023-03-04T08:29:40;8.70;62.90
2749;DHT22;1382;52.142;11.618;2023-03-04T08:32:07;8.70;62.70
2749;DHT22;1382;52.142;11.618;2023-03-04T08:34:33;8.80;62.80
2749;DHT22;1382;52.142;11.618;2023-03-04T08:37:00;8.90;62.60
2749;DHT22;1382;52.142;11.618;2023-03-04T08:39:27;8.90;63.30
2749;DHT22;1382;52.142;11.618;2023-03-04T08:41:54;8.90;62.50
2749;DHT22;1382;52.142;11.618;2023-03-04T08:44:22;8.90;62.30
2749;DHT22;1382;52.142;11.618;2023-03-04T08:46:52;8.90;62.70
2749;DHT22;1382;52.142;11.618;2023-03-04T08:49:19;9.00;62.60
2749;DHT22;1382;52.142;11.618;2023-03-04T08:51:45;9.00;62.90
2749;DHT22;1382;52.142;11.618;2023-03-04T08:54:12;9.10;63.10
2749;DHT22;1382;52.142;11.618;2023-03-04T08:56:39;9.10;64.00
2749;DHT22;1382;52.142;11.618;2023-03-04T08:59:06;9.10;63.10
2749;DHT22;1382;52.142;11.618;2023-03-04T09:01:34;9.20;63.00
2749;DHT22;1382;52.142;11.618;2023-03-04T09:04:01;9.20;62.90
2749;DHT22;1382;52.142;11.618;2023-03-04T09:06:27;9.30;62.80
2749;DHT22;1382;52.142;11.618;2023-03-04T09:08:54;9.30;62.80
2749;DHT22;1382;52.142;11.618;2023-03-04T09:11:21;9.30;62.50
2749;DHT22;1382;52.142;11.618;2023-03-04T09:13:48;9.40;62.80
2749;DHT22;1382;52.142;11.618;2023-03-04T09:16:14;9.40;63.40
2749;DHT22;1382;52.142;11.618;2023-03-04T09:18:42;9.40;62.70
2749;DHT22;1382;52.142;11.618;2023-03-04T09:21:10;9.40;62.50
2749;DHT22;1382;52.142;11.618;2023-03-04T09:23:37;9.60;62.70
2749;DHT22;1382;52.142;11.618;2023-03-04T09:26:13;9.40;62.50
2749;DHT22;1382;52.142;11.618;2023-03-04T09:28:40;9.40;62.30
2749;DHT22;1382;52.142;11.618;2023-03-04T09:31:10;9.40;62.30
2749;DHT22;1382;52.142;11.618;2023-03-04T09:33:37;9.40;62.20
2749;DHT22;1382;52.142;11.618;2023-03-04T09:36:06;9.40;62.20
2749;DHT22;1382;52.142;11.618;2023-03-04T09:38:33;9.40;61.90
2749;DHT22;1382;52.142;11.618;2023-03-04T09:41:05;9.30;61.60
2749;DHT22;1382;52.142;11.618;2023-03-04T09:43:33;9.30;61.60
2749;DHT22;1382;52.142;11.618;2023-03-04T09:46:02;9.30;62.00
2749;DHT22;1382;52.142;11.618;2023-03-04T09:48:39;9.30;62.30
2749;DHT22;1382;52.142;11.618;2023-03-04T09:51:18;9.30;62.40
2749;DHT22;1382;52.142;11.618;2023-03-04T09:53:53;9.30;62.80
2749;DHT22;1382;52.142;11.618;2023-03-04T09:56:22;9.30;63.10
2749;DHT22;1382;52.142;11.618;2023-03-04T09:58:58;9.30;63.30
2749;DHT22;1382;52.142;11.618;2023-03-04T10:01:31;9.30;63.20
2749;DHT22;1382;52.142;11.618;2023-03-04T10:04:02;9.40;63.50
2749;DHT22;1382;52.142;11.618;2023-03-04T10:06:33;9.40;63.10
2749;DHT22;1382;52.142;11.618;2023-03-04T10:09:02;9.40;63.10
2749;DHT22;1382;52.142;11.618;2023-03-04T10:11:34;9.40;63.00
2749;DHT22;1382;52.142;11.618;2023-03-04T10:14:13;9.40;62.80
2749;DHT22;1382;52.142;11.618;2023-03-04T10:16:44;9.40;62.50
2749;DHT22;1382;52.142;11.618;2023-03-04T10:19:23;9.40;62.50
2749;DHT22;1382;52.142;11.618;2023-03-04T10:21:55;9.50;62.50
2749;DHT22;1382;52.142;11.618;2023-03-04T10:24:26;9.50;62.50
2749;DHT22;1382;52.142;11.618;2023-03-04T10:26:54;9.50;62.00
2749;DHT22;1382;52.142;11.618;2023-03-04T10:29:23;9.60;62.10
2749;DHT22;1382;52.142;11.618;2023-03-04T10:31:50;9.60;62.50
2749;DHT22;1382;52.142;11.618;2023-03-04T10:34:17;9.60;62.70
2749;DHT22;1382;52.142;11.618;2023-03-04T10:36:52;9.70;62.90
2749;DHT22;1382;52.142;11.618;2023-03-04T10:39:25;9.60;63.00
2749;DHT22;1382;52.142;11.618;2023-03-04T10:41:56;9.60;62.90
2749;DHT22;1382;52.142;11.618;2023-03-04T10:44:24;9.60;62.90
2749;DHT22;1382;52.142;11.618;2023-03-04T10:46:53;9.50;61.80
2749;DHT22;1382;52.142;11.618;2023-03-04T10:49:21;9.50;61.30
2749;DHT22;1382;52.142;11.618;2023-03-04T10:51:49;9.50;61.40
2749;DHT22;1382;52.142;11.618;2023-03-04T10:54:27;9.50;60.70
2749;DHT22;1382;52.142;11.618;2023-03-04T10:56:59;9.50;60.50
2749;DHT22;1382;52.142;11.618;2023-03-04T10:59:45;9.50;60.20
2749;DHT22;1382;52.142;11.618;2023-03-04T11:02:19;9.50;59.90
2749;DHT22;1382;52.142;11.618;2023-03-04T11:04:51;9.40;59.30
2749;DHT22;1382;52.142;11.618;2023-03-04T11:07:19;9.40;58.20
2749;DHT22;1382;52.142;11.618;2023-03-04T11:09:47;9.30;57.90
2749;DHT22;1382;52.142;11.618;2023-03-04T11:12:16;9.30;56.90
2749;DHT22;1382;52.142;11.618;2023-03-04T11:14:45;9.30;57.00
2749;DHT22;1382;52.142;11.618;2023-03-04T11:17:18;9.40;56.40
2749;DHT22;1382;52.142;11.618;2023-03-04T11:19:47;9.50;55.80
2749;DHT22;1382;52.142;11.618;2023-03-04T11:22:19;9.30;55.50
2749;DHT22;1382;52.142;11.618;2023-03-04T11:24:54;9.40;54.10
2749;DHT22;1382;52.142;11.618;2023-03-04T11:27:24;9.40;55.30
2749;DHT22;1382;52.142;11.618;2023-03-04T11:29:57;9.40;54.30
2749;DHT22;1382;52.142;11.618;2023-03-04T11:32:27;9.50;53.80
2749;DHT22;1382;52.142;11.618;2023-03-04T11:34:59;9.50;53.60
2749;DHT22;1382;52.142;11.618;2023-03-04T11:37:30;9.60;54.30
2749;DHT22;1382;52.142;11.618;2023-03-04T11:40:03;9.60;54.30
2749;DHT22;1382;52.142;11.618;2023-03-04T11:42:36;9.70;54.30
2749;DHT22;1382;52.142;11.618;2023-03-04T11:45:10;9.80;54.60
2749;DHT22;1382;52.142;11.618;2023-03-04T11:47:59;9.90;54.60
2749;DHT22;1382;52.142;11.618;2023-03-04T11:50:30;9.90;54.90
2749;DHT22;1382;52.142;11.618;2023-03-04T11:53:10;10.00;53.70
2749;DHT22;1382;52.142;11.618;2023-03-04T11:55:44;10.10;52.20
2749;DHT22;1382;52.142;11.618;2023-03-04T11:58:31;10.10;52.90
2749;DHT22;1382;52.142;11.618;2023-03-04T12:01:06;10.10;53.90
2749;DHT22;1382;52.142;11.618;2023-03-04T12:03:53;10.10;53.80
2749;DHT22;1382;52.142;11.618;2023-03-04T12:06:32;10.30;53.80
2749;DHT22;1382;52.142;11.618;2023-03-04T12:09:11;10.30;53.80
2749;DHT22;1382;52.142;11.618;2023-03-04T12:11:51;10.30;53.60
2749;DHT22;1382;52.142;11.618;2023-03-04T12:14:29;10.30;53.60
2749;DHT22;1382;52.142;11.618;2023-03-04T12:17:08;10.30;53.60
2749;DHT22;1382;52.142;11.618;2023-03-04T12:19:52;10.30;53.00
2749;DHT22;1382;52.142;11.618;2023-03-04T12:22:29;10.40;52.80
2749;DHT22;1382;52.142;11.618;2023-03-04T12:25:22;10.40;52.50
2749;DHT22;1382;52.142;11.618;2023-03-04T12:27:57;10.40;52.40
2749;DHT22;1382;52.142;11.618;2023-03-04T12:30:34;10.30;52.10
2749;DHT22;1382;52.142;11.618;2023-03-04T12:33:12;10.30;52.60
2749;DHT22;1382;52.142;11.618;2023-03-04T12:35:48;10.30;52.50
2749;DHT22;1382;52.142;11.618;2023-03-04T12:38:33;10.40;52.50
2749;DHT22;1382;52.142;11.618;2023-03-04T12:41:11;10.40;51.90
2749;DHT22;1382;52.142;11.618;2023-03-04T12:43:48;10.40;51.20
2749;DHT22;1382;52.142;11.618;2023-03-04T12:46:26;10.30;51.40
2749;DHT22;1382;52.142;11.618;2023-03-04T12:49:18;10.20;51.60
2749;DHT22;1382;52.142;11.618;2023-03-04T12:51:55;10.30;51.60
2749;DHT22;1382;52.142;11.618;2023-03-04T12:54:30;10.20;50.90
2749;DHT22;1382;52.142;11.618;2023-03-04T12:57:00;10.20;51.00
2749;DHT22;1382;52.142;11.618;2023-03-04T12:59:32;10.20;50.20
2749;DHT22;1382;52.142;11.618;2023-03-04T13:02:13;10.30;50.80
2749;DHT22;1382;52.142;11.618;2023-03-04T13:04:52;10.20;50.50
2749;DHT22;1382;52.142;11.618;2023-03-04T13:07:37;10.20;51.00
2749;DHT22;1382;52.142;11.618;2023-03-04T13:10:09;10.20;50.90
2749;DHT22;1382;52.142;11.618;2023-03-04T13:12:47;10.40;50.60
2749;DHT22;1382;52.142;11.618;2023-03-04T13:15:29;10.20;50.10
2749;DHT22;1382;52.142;11.618;2023-03-04T13:17:57;10.20;50.60
2749;DHT22;1382;52.142;11.618;2023-03-04T13:20:36;10.20;50.50
2749;DHT22;1382;52.142;11.618;2023-03-04T13:23:20;10.20;50.70
2749;DHT22;1382;52.142;11.618;2023-03-04T13:25:50;10.30;50.70
2749;DHT22;1382;52.142;11.618;2023-03-04T13:28:35;10.20;50.90
2749;DHT22;1382;52.142;11.618;2023-03-04T13:31:13;10.30;51.10
2749;DHT22;1382;52.142;11.618;2023-03-04T13:33:59;10.20;50.40
2749;DHT22;1382;52.142;11.618;2023-03-04T13:39:26;10.20;50.40
2749;DHT22;1382;52.142;11.618;2023-03-04T13:41:54;10.10;50.30
2749;DHT22;1382;52.142;11.618;2023-03-04T13:47:16;10.00;50.20
2749;DHT22;1382;52.142;11.618;2023-03-04T13:49:44;10.00;50.00
2749;DHT22;1382;52.142;11.618;2023-03-04T13:52:37;10.10;49.90
2749;DHT22;1382;52.142;11.618;2023-03-04T13:55:33;10.20;47.70
2749;DHT22;1382;52.142;11.618;2023-03-04T13:58:01;10.20;47.60
2749;DHT22;1382;52.142;11.618;2023-03-04T14:00:28;10.10;48.10
2749;DHT22;1382;52.142;11.618;2023-03-04T14:03:11;10.10;47.80
2749;DHT22;1382;52.142;11.618;2023-03-04T14:05:38;10.10;48.30
2749;DHT22;1382;52.142;11.618;2023-03-04T14:08:16;10.10;49.00
2749;DHT22;1382;52.142;11.618;2023-03-04T14:10:43;10.10;49.90
2749;DHT22;1382;52.142;11.618;2023-03-04T14:13:10;10.10;50.20
2749;DHT22;1382;52.142;11.618;2023-03-04T14:15:38;10.20;50.20
2749;DHT22;1382;52.142;11.618;2023-03-04T14:18:06;10.20;49.60
2749;DHT22;1382;52.142;11.618;2023-03-04T14:20:35;10.20;48.90
2749;DHT22;1382;52.142;11.618;2023-03-04T14:23:03;10.20;48.80
2749;DHT22;1382;52.142;11.618;2023-03-04T14:25:32;10.20;49.10
2749;DHT22;1382;52.142;11.618;2023-03-04T14:28:03;10.20;49.30
2749;DHT22;1382;52.142;11.618;2023-03-04T14:30:31;10.20;49.50
2749;DHT22;1382;52.142;11.618;2023-03-04T14:33:14;10.20;49.90
2749;DHT22;1382;52.142;11.618;2023-03-04T14:35:45;10.30;49.40
2749;DHT22;1382;52.142;11.618;2023-03-04T14:38:20;10.20;49.50
2749;DHT22;1382;52.142;11.618;2023-03-04T14:40:56;10.20;49.20
2749;DHT22;1382;52.142;11.618;2023-03-04T14:43:26;10.30;50.00
2749;DHT22;1382;52.142;11.618;2023-03-04T14:45:57;10.30;49.80
2749;DHT22;1382;52.142;11.618;2023-03-04T14:48:30;10.40;49.30
2749;DHT22;1382;52.142;11.618;2023-03-04T14:50:58;10.30;49.40
2749;DHT22;1382;52.142;11.618;2023-03-04T14:53:30;10.30;48.30
2749;DHT22;1382;52.142;11.618;2023-03-04T14:55:59;10.30;48.00
2749;DHT22;1382;52.142;11.618;2023-03-04T14:58:27;10.20;48.10
2749;DHT22;1382;52.142;11.618;2023-03-04T15:01:06;10.30;48.70
2749;DHT22;1382;52.142;11.618;2023-03-04T15:03:34;10.30;48.60
2749;DHT22;1382;52.142;11.618;2023-03-04T15:06:16;10.30;48.50
2749;DHT22;1382;52.142;11.618;2023-03-04T15:08:44;10.40;48.30
2749;DHT22;1382;52.142;11.618;2023-03-04T15:11:20;10.30;47.70
2749;DHT22;1382;52.142;11.618;2023-03-04T15:13:49;10.30;47.10
2749;DHT22;1382;52.142;11.618;2023-03-04T15:16:19;10.30;47.40
2749;DHT22;1382;52.142;11.618;2023-03-04T15:19:02;10.20;48.00
2749;DHT22;1382;52.142;11.618;2023-03-04T15:21:35;10.30;47.10
2749;DHT22;1382;52.142;11.618;2023-03-04T15:24:02;10.20;46.90
2749;DHT22;1382;52.142;11.618;2023-03-04T15:26:30;10.20;47.90
2749;DHT22;1382;52.142;11.618;2023-03-04T15:28:58;10.20;48.00
2749;DHT22;1382;52.142;11.618;2023-03-04T15:31:25;10.20;47.30
2749;DHT22;1382;52.142;11.618;2023-03-04T15:33:52;10.20;48.10
2749;DHT22;1382;52.142;11.618;2023-03-04T15:36:21;10.20;48.10
2749;DHT22;1382;52.142;11.618;2023-03-04T15:38:50;10.20;48.40
2749;DHT22;1382;52.142;11.618;2023-03-04T15:41:20;10.20;48.50
2749;DHT22;1382;52.142;11.618;2023-03-04T15:43:47;10.10;48.40
2749;DHT22;1382;52.142;11.618;2023-03-04T15:46:14;10.10;49.50
2749;DHT22;1382;52.142;11.618;2023-03-04T15:48:43;10.20;49.20
2749;DHT22;1382;52.142;11.618;2023-03-04T15:51:13;10.20;49.10
2749;DHT22;1382;52.142;11.618;2023-03-04T15:53:43;10.10;49.10
2749;DHT22;1382;52.142;11.618;2023-03-04T15:56:13;10.30;49.70
2749;DHT22;1382;52.142;11.618;2023-03-04T15:58:40;10.20;50.30
2749;DHT22;1382;52.142;11.618;2023-03-04T16:01:10;10.20;49.90
2749;DHT22;1382;52.142;11.618;2023-03-04T16:03:40;10.20;48.60
2749;DHT22;1382;52.142;11.618;2023-03-04T16:06:08;10.10;48.50
2749;DHT22;1382;52.142;11.618;2023-03-04T16:08:35;10.10;48.60
2749;DHT22;1382;52.142;11.618;2023-03-04T16:11:04;10.00;48.80
2749;DHT22;1382;52.142;11.618;2023-03-04T16:13:31;10.00;49.30
2749;DHT22;1382;52.142;11.618;2023-03-04T16:15:57;10.00;48.10
2749;DHT22;1382;52.142;11.618;2023-03-04T16:18:24;10.00;48.30